sensor_id;sensor_type;location;lat;lon;timestamp;P1;durP1;ratioP1;P2;durP2;ratioP2
78824;SDS011;68176;45.554;10.220;2023-02-28T00:01:45;6.20;;;4.10;;
78824;SDS011;68176;45.554;10.220;2023-02-28T00:04:15;7.07;;;4.40;;
78824;SDS011;68176;45.554;10.220;2023-02-28T00:06:45;7.50;;;4.07;;
78824;SDS011;68176;45.554;10.220;2023-02-28T00:09:15;6.72;;;4.05;;
78824;SDS011;68176;45.554;10.220;2023-02-28T00:11:45;7.13;;;4.07;;
78824;SDS011;68176;45.554;10.220;2023-02-28T00:14:16;5.63;;;3.63;;
78824;SDS011;68176;45.554;10.220;2023-02-28T00:16:45;6.10;;;4.00;;
78824;SDS011;68176;45.554;10.220;2023-02-28T00:19:16;6.35;;;4.60;;
78824;SDS011;68176;45.554;10.220;2023-02-28T00:21:45;7.15;;;4.65;;
78824;SDS011;68176;45.554;10.220;2023-02-28T00:24:16;7.03;;;4.63;;
78824;SDS011;68176;45.554;10.220;2023-02-28T00:26:49;7.18;;;4.57;;
78824;SDS011;68176;45.554;10.220;2023-02-28T00:29:15;5.45;;;3.25;;
78824;SDS011;68176;45.554;10.220;2023-02-28T00:31:45;6.13;;;3.97;;
78824;SDS011;68176;45.554;10.220;2023-02-28T00:34:15;7.00;;;4.45;;
78824;SDS011;68176;45.554;10.220;2023-02-28T00:36:46;6.38;;;4.90;;
78824;SDS011;68176;45.554;10.220;2023-02-28T00:39:16;9.02;;;4.47;;
78824;SDS011;68176;45.554;10.220;2023-02-28T00:41:46;6.75;;;4.72;;
78824;SDS011;68176;45.554;10.220;2023-02-28T00:44:16;7.30;;;4.55;;
78824;SDS011;68176;45.554;10.220;2023-02-28T00:46:46;6.93;;;4.35;;
78824;SDS011;68176;45.554;10.220;2023-02-28T00:49:16;8.90;;;5.07;;
78824;SDS011;68176;45.554;10.220;2023-02-28T00:54:16;7.95;;;4.30;;
78824;SDS011;68176;45.554;10.220;2023-02-28T00:56:46;6.07;;;4.18;;
78824;SDS011;68176;45.554;10.220;2023-02-28T00:59:16;8.00;;;4.72;;
78824;SDS011;68176;45.554;10.220;2023-02-28T01:01:46;6.47;;;4.47;;
78824;SDS011;68176;45.554;10.220;2023-02-28T01:04:16;6.75;;;4.45;;
78824;SDS011;68176;45.554;10.220;2023-02-28T01:06:46;7.38;;;4.47;;
78824;SDS011;68176;45.554;10.220;2023-02-28T01:09:16;6.72;;;3.88;;
78824;SDS011;68176;45.554;10.220;2023-02-28T01:11:46;10.30;;;6.10;;
78824;SDS011;68176;45.554;10.220;2023-02-28T01:14:16;7.13;;;4.53;;
78824;SDS011;68176;45.554;10.220;2023-02-28T01:16:46;6.68;;;4.20;;
78824;SDS011;68176;45.554;10.220;2023-02-28T01:19:16;7.10;;;4.72;;
78824;SDS011;68176;45.554;10.220;2023-02-28T01:21:46;6.90;;;4.45;;
78824;SDS011;68176;45.554;10.220;2023-02-28T01:24:16;8.32;;;4.25;;
78824;SDS011;68176;45.554;10.220;2023-02-28T01:26:46;5.45;;;4.30;;
78824;SDS011;68176;45.554;10.220;2023-02-28T01:29:16;11.27;;;4.65;;
78824;SDS011;68176;45.554;10.220;2023-02-28T01:31:46;5.85;;;3.83;;
78824;SDS011;68176;45.554;10.220;2023-02-28T01:34:16;9.98;;;4.68;;
78824;SDS011;68176;45.554;10.220;2023-02-28T01:36:46;3.88;;;3.20;;
78824;SDS011;68176;45.554;10.220;2023-02-28T01:41:46;6.97;;;4.13;;
78824;SDS011;68176;45.554;10.220;2023-02-28T01:49:44;6.70;;;6.10;;
78824;SDS011;68176;45.554;10.220;2023-02-28T01:52:12;6.35;;;3.53;;
78824;SDS011;68176;45.554;10.220;2023-02-28T01:54:43;7.05;;;4.55;;
78824;SDS011;68176;45.554;10.220;2023-02-28T01:57:15;6.45;;;4.15;;
78824;SDS011;68176;45.554;10.220;2023-02-28T02:02:15;2.80;;;2.20;;
78824;SDS011;68176;45.554;10.220;2023-02-28T02:04:49;6.30;;;3.65;;
78824;SDS011;68176;45.554;10.220;2023-02-28T02:07:20;4.57;;;3.15;;
78824;SDS011;68176;45.554;10.220;2023-02-28T02:09:46;3.95;;;2.95;;
78824;SDS011;68176;45.554;10.220;2023-02-28T02:12:42;8.60;;;4.47;;
78824;SDS011;68176;45.554;10.220;2023-02-28T02:15:32;5.32;;;4.80;;
78824;SDS011;68176;45.554;10.220;2023-02-28T02:18:16;4.95;;;4.22;;
78824;SDS011;68176;45.554;10.220;2023-02-28T02:23:21;4.75;;;3.90;;
78824;SDS011;68176;45.554;10.220;2023-02-28T02:40:08;4.27;;;3.17;;
78824;SDS011;68176;45.554;10.220;2023-02-28T02:45:53;5.25;;;3.95;;
78824;SDS011;68176;45.554;10.220;2023-02-28T02:48:20;5.95;;;4.30;;
78824;SDS011;68176;45.554;10.220;2023-02-28T02:50:57;7.50;;;3.42;;
78824;SDS011;68176;45.554;10.220;2023-02-28T02:53:27;5.70;;;3.80;;
78824;SDS011;68176;45.554;10.220;2023-02-28T02:55:57;6.70;;;3.90;;
78824;SDS011;68176;45.554;10.220;2023-02-28T02:58:26;4.20;;;3.50;;
78824;SDS011;68176;45.554;10.220;2023-02-28T03:01:07;7.68;;;3.35;;
78824;SDS011;68176;45.554;10.220;2023-02-28T03:03:35;5.90;;;3.50;;
78824;SDS011;68176;45.554;10.220;2023-02-28T03:06:02;4.65;;;3.80;;
78824;SDS011;68176;45.554;10.220;2023-02-28T03:08:37;6.77;;;3.40;;
78824;SDS011;68176;45.554;10.220;2023-02-28T03:11:07;4.65;;;3.80;;
78824;SDS011;68176;45.554;10.220;2023-02-28T03:16:28;6.93;;;4.10;;
78824;SDS011;68176;45.554;10.220;2023-02-28T03:19:18;7.47;;;4.47;;
78824;SDS011;68176;45.554;10.220;2023-02-28T03:27:24;6.43;;;3.95;;
78824;SDS011;68176;45.554;10.220;2023-02-28T03:30:10;6.53;;;3.40;;
78824;SDS011;68176;45.554;10.220;2023-02-28T03:35:21;7.47;;;3.97;;
78824;SDS011;68176;45.554;10.220;2023-02-28T03:37:51;5.97;;;3.43;;
78824;SDS011;68176;45.554;10.220;2023-02-28T03:40:20;4.55;;;3.80;;
78824;SDS011;68176;45.554;10.220;2023-02-28T03:42:50;4.35;;;2.55;;
78824;SDS011;68176;45.554;10.220;2023-02-28T03:45:30;5.90;;;5.20;;
78824;SDS011;68176;45.554;10.220;2023-02-28T03:48:01;5.82;;;4.05;;
78824;SDS011;68176;45.554;10.220;2023-02-28T03:50:36;4.18;;;3.00;;
78824;SDS011;68176;45.554;10.220;2023-02-28T03:53:09;5.55;;;3.50;;
78824;SDS011;68176;45.554;10.220;2023-02-28T03:55:40;6.18;;;4.20;;
78824;SDS011;68176;45.554;10.220;2023-02-28T04:01:07;4.50;;;3.20;;
78824;SDS011;68176;45.554;10.220;2023-02-28T04:03:46;5.43;;;4.07;;
78824;SDS011;68176;45.554;10.220;2023-02-28T04:06:19;3.00;;;2.20;;
78824;SDS011;68176;45.554;10.220;2023-02-28T04:08:46;4.77;;;4.23;;
78824;SDS011;68176;45.554;10.220;2023-02-28T04:13:49;7.03;;;3.75;;
78824;SDS011;68176;45.554;10.220;2023-02-28T04:16:15;3.30;;;2.30;;
78824;SDS011;68176;45.554;10.220;2023-02-28T04:18:43;6.13;;;4.10;;
78824;SDS011;68176;45.554;10.220;2023-02-28T04:21:13;6.32;;;4.18;;
78824;SDS011;68176;45.554;10.220;2023-02-28T04:23:43;5.70;;;4.60;;
78824;SDS011;68176;45.554;10.220;2023-02-28T04:26:13;5.65;;;3.45;;
78824;SDS011;68176;45.554;10.220;2023-02-28T04:28:43;5.85;;;4.28;;
78824;SDS011;68176;45.554;10.220;2023-02-28T04:31:13;5.38;;;4.53;;
78824;SDS011;68176;45.554;10.220;2023-02-28T04:33:43;6.13;;;4.50;;
78824;SDS011;68176;45.554;10.220;2023-02-28T04:36:13;7.13;;;4.78;;
78824;SDS011;68176;45.554;10.220;2023-02-28T04:38:43;5.15;;;4.13;;
78824;SDS011;68176;45.554;10.220;2023-02-28T04:41:13;5.55;;;3.70;;
78824;SDS011;68176;45.554;10.220;2023-02-28T04:43:43;6.25;;;4.38;;
78824;SDS011;68176;45.554;10.220;2023-02-28T04:48:43;7.40;;;5.03;;
78824;SDS011;68176;45.554;10.220;2023-02-28T04:51:14;6.25;;;3.97;;
78824;SDS011;68176;45.554;10.220;2023-02-28T04:53:43;7.07;;;4.10;;
78824;SDS011;68176;45.554;10.220;2023-02-28T04:56:13;6.30;;;4.38;;
78824;SDS011;68176;45.554;10.220;2023-02-28T04:58:43;6.55;;;4.72;;
78824;SDS011;68176;45.554;10.220;2023-02-28T05:03:45;3.90;;;3.30;;
78824;SDS011;68176;45.554;10.220;2023-02-28T05:06:13;4.95;;;4.35;;
78824;SDS011;68176;45.554;10.220;2023-02-28T05:08:43;7.03;;;4.45;;
78824;SDS011;68176;45.554;10.220;2023-02-28T05:11:14;7.53;;;4.43;;
78824;SDS011;68176;45.554;10.220;2023-02-28T05:13:45;3.70;;;2.70;;
78824;SDS011;68176;45.554;10.220;2023-02-28T05:16:15;4.50;;;3.30;;
78824;SDS011;68176;45.554;10.220;2023-02-28T05:18:43;6.15;;;3.97;;
78824;SDS011;68176;45.554;10.220;2023-02-28T05:21:27;6.50;;;4.18;;
78824;SDS011;68176;45.554;10.220;2023-02-28T05:24:08;4.67;;;3.40;;
78824;SDS011;68176;45.554;10.220;2023-02-28T05:26:36;5.45;;;3.25;;
78824;SDS011;68176;45.554;10.220;2023-02-28T05:29:03;3.05;;;1.90;;
78824;SDS011;68176;45.554;10.220;2023-02-28T05:31:31;6.60;;;3.55;;
78824;SDS011;68176;45.554;10.220;2023-02-28T05:34:00;6.30;;;4.05;;
78824;SDS011;68176;45.554;10.220;2023-02-28T05:36:31;5.40;;;4.45;;
78824;SDS011;68176;45.554;10.220;2023-02-28T05:39:01;7.22;;;5.05;;
78824;SDS011;68176;45.554;10.220;2023-02-28T05:41:30;11.32;;;5.13;;
78824;SDS011;68176;45.554;10.220;2023-02-28T05:46:30;6.95;;;4.82;;
78824;SDS011;68176;45.554;10.220;2023-02-28T05:51:31;6.85;;;4.75;;
78824;SDS011;68176;45.554;10.220;2023-02-28T05:54:01;6.78;;;4.05;;
78824;SDS011;68176;45.554;10.220;2023-02-28T05:56:31;6.22;;;4.00;;
78824;SDS011;68176;45.554;10.220;2023-02-28T05:59:01;6.78;;;4.40;;
78824;SDS011;68176;45.554;10.220;2023-02-28T06:04:02;5.47;;;3.70;;
78824;SDS011;68176;45.554;10.220;2023-02-28T06:06:31;5.90;;;4.25;;
78824;SDS011;68176;45.554;10.220;2023-02-28T06:09:01;6.82;;;4.13;;
78824;SDS011;68176;45.554;10.220;2023-02-28T06:11:31;6.47;;;4.38;;
78824;SDS011;68176;45.554;10.220;2023-02-28T06:14:04;6.03;;;4.70;;
78824;SDS011;68176;45.554;10.220;2023-02-28T06:16:32;6.40;;;4.70;;
78824;SDS011;68176;45.554;10.220;2023-02-28T06:19:19;7.95;;;5.15;;
78824;SDS011;68176;45.554;10.220;2023-02-28T06:21:45;5.85;;;4.47;;
78824;SDS011;68176;45.554;10.220;2023-02-28T06:24:14;5.63;;;3.57;;
78824;SDS011;68176;45.554;10.220;2023-02-28T06:26:40;7.60;;;4.60;;
78824;SDS011;68176;45.554;10.220;2023-02-28T06:29:08;7.95;;;3.60;;
78824;SDS011;68176;45.554;10.220;2023-02-28T06:31:38;7.68;;;4.88;;
78824;SDS011;68176;45.554;10.220;2023-02-28T06:34:08;7.47;;;4.88;;
78824;SDS011;68176;45.554;10.220;2023-02-28T06:36:39;7.57;;;4.55;;
78824;SDS011;68176;45.554;10.220;2023-02-28T06:39:09;7.88;;;5.13;;
78824;SDS011;68176;45.554;10.220;2023-02-28T06:41:38;7.35;;;4.63;;
78824;SDS011;68176;45.554;10.220;2023-02-28T06:44:18;6.57;;;4.38;;
78824;SDS011;68176;45.554;10.220;2023-02-28T06:46:44;4.83;;;3.87;;
78824;SDS011;68176;45.554;10.220;2023-02-28T06:49:10;5.50;;;4.00;;
78824;SDS011;68176;45.554;10.220;2023-02-28T06:51:40;7.40;;;5.00;;
78824;SDS011;68176;45.554;10.220;2023-02-28T06:54:10;4.20;;;2.60;;
78824;SDS011;68176;45.554;10.220;2023-02-28T06:56:39;8.07;;;4.95;;
78824;SDS011;68176;45.554;10.220;2023-02-28T06:59:08;8.27;;;5.30;;
78824;SDS011;68176;45.554;10.220;2023-02-28T07:01:39;6.40;;;4.25;;
78824;SDS011;68176;45.554;10.220;2023-02-28T07:04:09;6.25;;;4.18;;
78824;SDS011;68176;45.554;10.220;2023-02-28T07:06:39;7.95;;;6.03;;
78824;SDS011;68176;45.554;10.220;2023-02-28T07:09:09;8.07;;;4.57;;
78824;SDS011;68176;45.554;10.220;2023-02-28T07:11:39;6.05;;;4.13;;
78824;SDS011;68176;45.554;10.220;2023-02-28T07:14:09;7.50;;;4.97;;
78824;SDS011;68176;45.554;10.220;2023-02-28T07:16:39;7.15;;;5.10;;
78824;SDS011;68176;45.554;10.220;2023-02-28T07:19:08;9.55;;;6.07;;
78824;SDS011;68176;45.554;10.220;2023-02-28T07:21:39;6.78;;;5.75;;
78824;SDS011;68176;45.554;10.220;2023-02-28T07:24:09;7.90;;;4.75;;
78824;SDS011;68176;45.554;10.220;2023-02-28T07:26:39;7.85;;;5.25;;
78824;SDS011;68176;45.554;10.220;2023-02-28T07:29:09;7.10;;;4.95;;
78824;SDS011;68176;45.554;10.220;2023-02-28T07:31:39;9.13;;;6.13;;
78824;SDS011;68176;45.554;10.220;2023-02-28T07:36:39;7.65;;;5.10;;
78824;SDS011;68176;45.554;10.220;2023-02-28T07:39:09;6.47;;;4.65;;
78824;SDS011;68176;45.554;10.220;2023-02-28T07:41:39;6.85;;;4.45;;
78824;SDS011;68176;45.554;10.220;2023-02-28T07:44:09;7.45;;;5.65;;
78824;SDS011;68176;45.554;10.220;2023-02-28T07:46:39;7.75;;;4.80;;
78824;SDS011;68176;45.554;10.220;2023-02-28T07:49:09;7.95;;;4.70;;
78824;SDS011;68176;45.554;10.220;2023-02-28T07:51:39;6.80;;;4.82;;
78824;SDS011;68176;45.554;10.220;2023-02-28T07:54:09;6.53;;;4.88;;
78824;SDS011;68176;45.554;10.220;2023-02-28T07:56:39;6.78;;;4.78;;
78824;SDS011;68176;45.554;10.220;2023-02-28T07:59:09;6.70;;;4.60;;
78824;SDS011;68176;45.554;10.220;2023-02-28T08:01:39;8.10;;;5.03;;
78824;SDS011;68176;45.554;10.220;2023-02-28T08:04:09;6.70;;;4.57;;
78824;SDS011;68176;45.554;10.220;2023-02-28T08:06:39;8.35;;;5.60;;
78824;SDS011;68176;45.554;10.220;2023-02-28T08:09:09;6.75;;;5.47;;
78824;SDS011;68176;45.554;10.220;2023-02-28T08:11:39;8.65;;;5.85;;
78824;SDS011;68176;45.554;10.220;2023-02-28T08:14:09;6.10;;;4.43;;
78824;SDS011;68176;45.554;10.220;2023-02-28T08:16:39;7.13;;;5.32;;
78824;SDS011;68176;45.554;10.220;2023-02-28T08:21:39;7.45;;;4.32;;
78824;SDS011;68176;45.554;10.220;2023-02-28T08:26:39;7.30;;;4.80;;
78824;SDS011;68176;45.554;10.220;2023-02-28T08:29:09;6.82;;;4.47;;
78824;SDS011;68176;45.554;10.220;2023-02-28T08:31:39;7.10;;;4.90;;
78824;SDS011;68176;45.554;10.220;2023-02-28T08:34:10;7.63;;;4.95;;
78824;SDS011;68176;45.554;10.220;2023-02-28T08:36:39;5.47;;;3.78;;
78824;SDS011;68176;45.554;10.220;2023-02-28T08:39:09;7.45;;;5.45;;
78824;SDS011;68176;45.554;10.220;2023-02-28T08:44:09;7.63;;;4.38;;
78824;SDS011;68176;45.554;10.220;2023-02-28T08:46:39;9.05;;;5.78;;
78824;SDS011;68176;45.554;10.220;2023-02-28T08:51:39;8.20;;;4.97;;
78824;SDS011;68176;45.554;10.220;2023-02-28T08:54:09;9.98;;;4.68;;
78824;SDS011;68176;45.554;10.220;2023-02-28T08:56:39;10.02;;;6.13;;
78824;SDS011;68176;45.554;10.220;2023-02-28T08:59:09;6.88;;;5.00;;
78824;SDS011;68176;45.554;10.220;2023-02-28T09:01:39;7.13;;;4.53;;
78824;SDS011;68176;45.554;10.220;2023-02-28T09:04:09;8.60;;;5.32;;
78824;SDS011;68176;45.554;10.220;2023-02-28T09:06:39;7.07;;;4.75;;
78824;SDS011;68176;45.554;10.220;2023-02-28T09:09:09;7.75;;;4.78;;
78824;SDS011;68176;45.554;10.220;2023-02-28T09:11:39;6.05;;;4.72;;
78824;SDS011;68176;45.554;10.220;2023-02-28T09:14:09;6.15;;;5.20;;
78824;SDS011;68176;45.554;10.220;2023-02-28T09:16:39;8.77;;;5.60;;
78824;SDS011;68176;45.554;10.220;2023-02-28T09:19:12;9.10;;;5.97;;
78824;SDS011;68176;45.554;10.220;2023-02-28T09:21:48;10.30;;;5.45;;
78824;SDS011;68176;45.554;10.220;2023-02-28T09:24:13;6.35;;;4.65;;
78824;SDS011;68176;45.554;10.220;2023-02-28T09:26:40;7.30;;;4.15;;
78824;SDS011;68176;45.554;10.220;2023-02-28T09:31:39;5.75;;;4.53;;
78824;SDS011;68176;45.554;10.220;2023-02-28T09:34:09;7.30;;;5.45;;
78824;SDS011;68176;45.554;10.220;2023-02-28T09:36:39;6.68;;;5.45;;
78824;SDS011;68176;45.554;10.220;2023-02-28T09:41:40;8.05;;;5.80;;
78824;SDS011;68176;45.554;10.220;2023-02-28T09:49:56;5.38;;;3.60;;
78824;SDS011;68176;45.554;10.220;2023-02-28T09:52:28;6.28;;;4.10;;
78824;SDS011;68176;45.554;10.220;2023-02-28T09:54:55;12.80;;;10.50;;
78824;SDS011;68176;45.554;10.220;2023-02-28T10:14:24;17.07;;;11.60;;
78824;SDS011;68176;45.554;10.220;2023-02-28T11:01:23;22.98;;;14.18;;
78824;SDS011;68176;45.554;10.220;2023-02-28T11:03:59;16.35;;;11.75;;
78824;SDS011;68176;45.554;10.220;2023-02-28T11:06:34;12.80;;;7.90;;
78824;SDS011;68176;45.554;10.220;2023-02-28T11:11:47;20.25;;;12.40;;
78824;SDS011;68176;45.554;10.220;2023-02-28T11:14:19;17.90;;;9.40;;
78824;SDS011;68176;45.554;10.220;2023-02-28T11:16:47;19.58;;;14.55;;
78824;SDS011;68176;45.554;10.220;2023-02-28T11:19:36;33.65;;;10.43;;
78824;SDS011;68176;45.554;10.220;2023-02-28T11:22:05;18.00;;;10.30;;
78824;SDS011;68176;45.554;10.220;2023-02-28T11:24:33;13.75;;;10.00;;
78824;SDS011;68176;45.554;10.220;2023-02-28T11:27:17;17.88;;;11.98;;
78824;SDS011;68176;45.554;10.220;2023-02-28T11:29:50;21.13;;;11.00;;
78824;SDS011;68176;45.554;10.220;2023-02-28T11:34:44;15.25;;;11.02;;
78824;SDS011;68176;45.554;10.220;2023-02-28T11:37:15;24.05;;;13.88;;
78824;SDS011;68176;45.554;10.220;2023-02-28T11:39:44;22.13;;;13.80;;
78824;SDS011;68176;45.554;10.220;2023-02-28T11:45:12;19.73;;;12.43;;
78824;SDS011;68176;45.554;10.220;2023-02-28T11:53:01;19.70;;;12.18;;
78824;SDS011;68176;45.554;10.220;2023-02-28T11:55:36;26.17;;;12.23;;
78824;SDS011;68176;45.554;10.220;2023-02-28T12:28:06;18.08;;;13.27;;
78824;SDS011;68176;45.554;10.220;2023-02-28T12:30:36;15.35;;;11.02;;
78824;SDS011;68176;45.554;10.220;2023-02-28T12:33:12;20.85;;;13.00;;
78824;SDS011;68176;45.554;10.220;2023-02-28T12:35:52;15.75;;;11.85;;
78824;SDS011;68176;45.554;10.220;2023-02-28T12:38:27;14.18;;;10.05;;
78824;SDS011;68176;45.554;10.220;2023-02-28T12:41:05;15.07;;;11.47;;
78824;SDS011;68176;45.554;10.220;2023-02-28T12:43:44;19.73;;;12.48;;
78824;SDS011;68176;45.554;10.220;2023-02-28T12:46:17;15.50;;;11.68;;
78824;SDS011;68176;45.554;10.220;2023-02-28T12:48:48;18.23;;;12.20;;
78824;SDS011;68176;45.554;10.220;2023-02-28T12:51:20;19.77;;;12.40;;
78824;SDS011;68176;45.554;10.220;2023-02-28T12:57:13;14.27;;;11.18;;
78824;SDS011;68176;45.554;10.220;2023-02-28T12:59:40;14.48;;;10.23;;
78824;SDS011;68176;45.554;10.220;2023-02-28T13:05:41;15.90;;;11.73;;
78824;SDS011;68176;45.554;10.220;2023-02-28T13:10:49;17.25;;;10.75;;
78824;SDS011;68176;45.554;10.220;2023-02-28T13:13:21;19.42;;;11.18;;
78824;SDS011;68176;45.554;10.220;2023-02-28T13:16:05;16.02;;;10.82;;
78824;SDS011;68176;45.554;10.220;2023-02-28T13:21:05;18.00;;;11.97;;
78824;SDS011;68176;45.554;10.220;2023-02-28T13:26:09;17.87;;;11.73;;
78824;SDS011;68176;45.554;10.220;2023-02-28T13:31:27;17.00;;;12.65;;
78824;SDS011;68176;45.554;10.220;2023-02-28T13:36:31;28.50;;;11.70;;
78824;SDS011;68176;45.554;10.220;2023-02-28T13:46:28;18.03;;;13.90;;
78824;SDS011;68176;45.554;10.220;2023-02-28T13:48:55;13.00;;;8.10;;
78824;SDS011;68176;45.554;10.220;2023-02-28T13:51:28;16.55;;;11.93;;
78824;SDS011;68176;45.554;10.220;2023-02-28T14:09:23;17.17;;;13.35;;
78824;SDS011;68176;45.554;10.220;2023-02-28T14:32:01;18.17;;;12.10;;
78824;SDS011;68176;45.554;10.220;2023-02-28T14:34:55;19.42;;;13.82;;
78824;SDS011;68176;45.554;10.220;2023-02-28T14:37:33;15.88;;;13.07;;
78824;SDS011;68176;45.554;10.220;2023-02-28T14:40:21;18.63;;;15.40;;
78824;SDS011;68176;45.554;10.220;2023-02-28T14:46:16;15.97;;;12.33;;
78824;SDS011;68176;45.554;10.220;2023-02-28T14:48:51;19.65;;;15.00;;
78824;SDS011;68176;45.554;10.220;2023-02-28T14:58:42;15.35;;;13.05;;
78824;SDS011;68176;45.554;10.220;2023-02-28T15:02:34;18.58;;;14.45;;
78824;SDS011;68176;45.554;10.220;2023-02-28T15:08:17;24.63;;;14.82;;
78824;SDS011;68176;45.554;10.220;2023-02-28T15:11:03;16.37;;;11.90;;
78824;SDS011;68176;45.554;10.220;2023-02-28T15:13:50;23.48;;;14.35;;
78824;SDS011;68176;45.554;10.220;2023-02-28T15:16:37;19.05;;;12.50;;
78824;SDS011;68176;45.554;10.220;2023-02-28T15:20:00;18.70;;;14.60;;
78824;SDS011;68176;45.554;10.220;2023-02-28T15:22:35;24.48;;;16.65;;
78824;SDS011;68176;45.554;10.220;2023-02-28T15:25:22;29.07;;;13.50;;
78824;SDS011;68176;45.554;10.220;2023-02-28T15:28:30;20.40;;;15.52;;
78824;SDS011;68176;45.554;10.220;2023-02-28T15:31:21;21.15;;;13.20;;
78824;SDS011;68176;45.554;10.220;2023-02-28T15:43:27;18.67;;;12.43;;
78824;SDS011;68176;45.554;10.220;2023-02-28T15:46:27;20.02;;;14.63;;
78824;SDS011;68176;45.554;10.220;2023-02-28T15:48:55;19.10;;;12.70;;
78824;SDS011;68176;45.554;10.220;2023-02-28T15:51:40;20.38;;;16.85;;
78824;SDS011;68176;45.554;10.220;2023-02-28T15:54:30;23.60;;;15.95;;
78824;SDS011;68176;45.554;10.220;2023-02-28T15:57:27;24.77;;;13.25;;
78824;SDS011;68176;45.554;10.220;2023-02-28T16:00:22;18.73;;;15.50;;
78824;SDS011;68176;45.554;10.220;2023-02-28T16:03:35;22.42;;;16.38;;
78824;SDS011;68176;45.554;10.220;2023-02-28T16:06:30;29.25;;;15.70;;
78824;SDS011;68176;45.554;10.220;2023-02-28T16:09:09;18.80;;;11.93;;
78824;SDS011;68176;45.554;10.220;2023-02-28T16:11:45;19.23;;;13.48;;
78824;SDS011;68176;45.554;10.220;2023-02-28T16:14:13;19.38;;;14.55;;
78824;SDS011;68176;45.554;10.220;2023-02-28T16:16:49;28.40;;;16.13;;
78824;SDS011;68176;45.554;10.220;2023-02-28T16:19:16;19.95;;;13.98;;
78824;SDS011;68176;45.554;10.220;2023-02-28T16:21:57;21.52;;;14.50;;
78824;SDS011;68176;45.554;10.220;2023-02-28T16:24:24;13.60;;;10.80;;
78824;SDS011;68176;45.554;10.220;2023-02-28T16:26:51;20.92;;;15.95;;
78824;SDS011;68176;45.554;10.220;2023-02-28T16:29:28;20.00;;;14.43;;
78824;SDS011;68176;45.554;10.220;2023-02-28T16:31:56;18.70;;;13.85;;
78824;SDS011;68176;45.554;10.220;2023-02-28T16:34:24;16.15;;;11.90;;
78824;SDS011;68176;45.554;10.220;2023-02-28T16:36:51;16.90;;;13.73;;
78824;SDS011;68176;45.554;10.220;2023-02-28T16:39:21;20.58;;;14.38;;
78824;SDS011;68176;45.554;10.220;2023-02-28T16:41:51;20.85;;;15.70;;
78824;SDS011;68176;45.554;10.220;2023-02-28T16:47:05;17.73;;;12.50;;
78824;SDS011;68176;45.554;10.220;2023-02-28T16:49:30;23.90;;;8.60;;
78824;SDS011;68176;45.554;10.220;2023-02-28T16:51:59;19.63;;;13.65;;
78824;SDS011;68176;45.554;10.220;2023-02-28T16:54:29;21.90;;;13.77;;
78824;SDS011;68176;45.554;10.220;2023-02-28T16:56:59;18.58;;;13.45;;
78824;SDS011;68176;45.554;10.220;2023-02-28T17:01:59;19.08;;;13.25;;
78824;SDS011;68176;45.554;10.220;2023-02-28T17:04:29;19.45;;;14.05;;
78824;SDS011;68176;45.554;10.220;2023-02-28T17:06:59;22.40;;;13.00;;
78824;SDS011;68176;45.554;10.220;2023-02-28T17:09:29;19.92;;;14.07;;
78824;SDS011;68176;45.554;10.220;2023-02-28T17:11:59;19.98;;;13.98;;
78824;SDS011;68176;45.554;10.220;2023-02-28T17:14:29;21.13;;;14.27;;
78824;SDS011;68176;45.554;10.220;2023-02-28T17:19:31;11.70;;;8.60;;
78824;SDS011;68176;45.554;10.220;2023-02-28T17:21:59;21.42;;;16.20;;
78824;SDS011;68176;45.554;10.220;2023-02-28T17:24:31;30.98;;;16.92;;
78824;SDS011;68176;45.554;10.220;2023-02-28T17:27:03;39.70;;;15.70;;
78824;SDS011;68176;45.554;10.220;2023-02-28T17:29:29;21.45;;;15.95;;
78824;SDS011;68176;45.554;10.220;2023-02-28T17:32:03;16.35;;;13.20;;
78824;SDS011;68176;45.554;10.220;2023-02-28T17:34:37;17.05;;;12.30;;
78824;SDS011;68176;45.554;10.220;2023-02-28T17:37:02;17.30;;;13.20;;
78824;SDS011;68176;45.554;10.220;2023-02-28T17:39:33;16.60;;;12.80;;
78824;SDS011;68176;45.554;10.220;2023-02-28T17:41:59;19.27;;;13.90;;
78824;SDS011;68176;45.554;10.220;2023-02-28T17:44:29;28.25;;;16.80;;
78824;SDS011;68176;45.554;10.220;2023-02-28T17:46:59;21.55;;;15.15;;
78824;SDS011;68176;45.554;10.220;2023-02-28T17:49:29;19.48;;;14.10;;
78824;SDS011;68176;45.554;10.220;2023-02-28T17:51:59;24.17;;;15.18;;
78824;SDS011;68176;45.554;10.220;2023-02-28T17:54:29;20.05;;;14.50;;
78824;SDS011;68176;45.554;10.220;2023-02-28T17:59:29;17.00;;;12.75;;
78824;SDS011;68176;45.554;10.220;2023-02-28T18:02:02;17.35;;;13.02;;
78824;SDS011;68176;45.554;10.220;2023-02-28T18:04:29;17.08;;;14.25;;
78824;SDS011;68176;45.554;10.220;2023-02-28T18:09:29;18.23;;;12.93;;
78824;SDS011;68176;45.554;10.220;2023-02-28T18:11:59;22.38;;;13.52;;
78824;SDS011;68176;45.554;10.220;2023-02-28T18:14:29;18.35;;;13.52;;
78824;SDS011;68176;45.554;10.220;2023-02-28T18:16:59;20.60;;;13.73;;
78824;SDS011;68176;45.554;10.220;2023-02-28T18:19:29;18.98;;;13.95;;
78824;SDS011;68176;45.554;10.220;2023-02-28T18:24:32;17.40;;;12.60;;
78824;SDS011;68176;45.554;10.220;2023-02-28T18:26:59;14.93;;;11.75;;
78824;SDS011;68176;45.554;10.220;2023-02-28T18:29:29;21.45;;;13.75;;
78824;SDS011;68176;45.554;10.220;2023-02-28T18:31:59;16.48;;;11.60;;
78824;SDS011;68176;45.554;10.220;2023-02-28T18:34:29;18.23;;;13.30;;
78824;SDS011;68176;45.554;10.220;2023-02-28T18:36:59;16.98;;;12.73;;
78824;SDS011;68176;45.554;10.220;2023-02-28T18:39:29;18.08;;;12.07;;
78824;SDS011;68176;45.554;10.220;2023-02-28T18:42:02;17.42;;;12.75;;
78824;SDS011;68176;45.554;10.220;2023-02-28T18:44:29;13.45;;;10.43;;
78824;SDS011;68176;45.554;10.220;2023-02-28T18:47:02;17.83;;;12.88;;
78824;SDS011;68176;45.554;10.220;2023-02-28T18:49:32;13.02;;;9.82;;
78824;SDS011;68176;45.554;10.220;2023-02-28T18:52:00;16.10;;;11.27;;
78824;SDS011;68176;45.554;10.220;2023-02-28T18:54:29;15.95;;;12.00;;
78824;SDS011;68176;45.554;10.220;2023-02-28T18:56:59;20.67;;;13.02;;
78824;SDS011;68176;45.554;10.220;2023-02-28T18:59:29;16.30;;;11.07;;
78824;SDS011;68176;45.554;10.220;2023-02-28T19:01:59;18.23;;;12.38;;
78824;SDS011;68176;45.554;10.220;2023-02-28T19:04:29;14.20;;;11.27;;
78824;SDS011;68176;45.554;10.220;2023-02-28T19:06:59;13.88;;;11.05;;
78824;SDS011;68176;45.554;10.220;2023-02-28T19:09:30;15.93;;;11.10;;
78824;SDS011;68176;45.554;10.220;2023-02-28T19:12:00;15.77;;;10.88;;
78824;SDS011;68176;45.554;10.220;2023-02-28T19:14:29;14.90;;;10.98;;
78824;SDS011;68176;45.554;10.220;2023-02-28T19:17:00;15.98;;;10.73;;
78824;SDS011;68176;45.554;10.220;2023-02-28T19:19:30;16.25;;;11.65;;
78824;SDS011;68176;45.554;10.220;2023-02-28T19:22:06;9.90;;;8.10;;
78824;SDS011;68176;45.554;10.220;2023-02-28T19:24:31;9.30;;;8.50;;
78824;SDS011;68176;45.554;10.220;2023-02-28T19:29:30;13.75;;;9.55;;
78824;SDS011;68176;45.554;10.220;2023-02-28T19:31:59;14.60;;;9.35;;
78824;SDS011;68176;45.554;10.220;2023-02-28T19:34:34;12.30;;;8.15;;
78824;SDS011;68176;45.554;10.220;2023-02-28T19:37:00;11.25;;;7.70;;
78824;SDS011;68176;45.554;10.220;2023-02-28T19:39:47;15.95;;;11.50;;
78824;SDS011;68176;45.554;10.220;2023-02-28T19:42:14;12.03;;;9.60;;
78824;SDS011;68176;45.554;10.220;2023-02-28T19:44:41;12.85;;;8.80;;
78824;SDS011;68176;45.554;10.220;2023-02-28T19:47:07;12.80;;;9.60;;